Time;durP1;ratioP1;P1;durP2;ratioP2;P2;SDS_P1;SDS_P2;PMS_P1;PMS_P2;Temp;Humidity;BMP_temperature;BMP_pressure;BME280_temperature;BME280_humidity;BME280_pressure;Samples;Min_cycle;Max_cycle;Signal;HPM_P1;HPM_P2
2022/05/23 00:02:20;;;;;;;2.07;1.87;;;17.40;99.90;;;;;;6059274;23;20455;-80
2022/05/23 00:04:47;;;;;;;3.00;2.20;;;17.40;99.90;;;;;;6061147;23;20452;-80
2022/05/23 00:07:24;;;;;;;4.37;2.70;;;17.30;99.90;;;;;;6060954;23;20538;-80
2022/05/23 00:09:51;;;;;;;2.70;2.50;;;17.30;99.90;;;;;;6059457;23;20459;-80
2022/05/23 00:12:18;;;;;;;3.37;2.33;;;17.30;99.90;;;;;;6053569;23;20891;-79
2022/05/23 00:14:46;;;;;;;2.50;2.30;;;17.30;99.90;;;;;;6060684;23;20451;-80
2022/05/23 00:17:13;;;;;;;2.50;2.33;;;17.20;99.90;;;;;;6060438;23;20521;-80
2022/05/23 00:19:42;;;;;;;2.10;2.00;;;17.20;99.90;;;;;;6060509;23;20474;-80
2022/05/23 00:22:09;;;;;;;2.50;2.30;;;17.20;99.90;;;;;;6050038;23;20444;-80
2022/05/23 00:24:36;;;;;;;2.17;2.03;;;17.20;99.90;;;;;;6054574;23;20440;-80
2022/05/23 00:27:04;;;;;;;2.10;2.00;;;17.20;99.90;;;;;;6061271;23;20474;-80
2022/05/23 00:29:31;;;;;;;2.53;2.33;;;17.10;99.90;;;;;;6059689;23;20461;-80
2022/05/23 00:37:28;;;;;;;2.27;2.07;;;17.20;99.90;;;;;;6060051;23;20515;-80
2022/05/23 00:39:56;;;;;;;2.53;2.33;;;17.20;99.90;;;;;;6056575;23;21164;-80
2022/05/23 00:45:15;;;;;;;2.53;2.20;;;17.10;99.90;;;;;;6048947;23;20446;-80
2022/05/23 00:47:43;;;;;;;2.53;2.23;;;17.10;99.90;;;;;;6048332;23;20569;-80
2022/05/23 00:50:15;;;;;;;2.40;2.07;;;17.10;99.90;;;;;;6057885;23;20536;-81
2022/05/23 00:52:49;;;;;;;2.10;2.00;;;17.10;99.90;;;;;;6055490;23;20538;-81
2022/05/23 00:55:21;;;;;;;2.80;2.40;;;17.20;99.90;;;;;;6057486;23;20458;-81
2022/05/23 00:57:52;;;;;;;2.73;2.50;;;17.20;99.90;;;;;;6050147;23;20511;-82
2022/05/23 01:00:20;;;;;;;2.80;2.60;;;17.30;99.90;;;;;;6055107;23;20476;-81
2022/05/23 01:02:57;;;;;;;3.23;2.30;;;17.30;99.90;;;;;;6057669;23;20450;-81
2022/05/23 01:05:26;;;;;;;2.73;2.53;;;17.30;99.90;;;;;;6046985;23;20471;-81
2022/05/23 01:07:53;;;;;;;2.97;2.77;;;17.30;99.90;;;;;;6059252;23;20933;-81
2022/05/23 01:10:20;;;;;;;2.40;2.20;;;17.30;99.90;;;;;;6059635;23;20443;-82
2022/05/23 01:12:47;;;;;;;2.67;2.47;;;17.30;99.90;;;;;;6047390;23;20491;-81
2022/05/23 01:15:19;;;;;;;3.33;2.37;;;17.30;99.90;;;;;;6059720;23;20461;-81
2022/05/23 01:17:47;;;;;;;2.20;2.00;;;17.30;99.90;;;;;;6060757;23;20443;-81
2022/05/23 01:20:15;;;;;;;2.57;2.37;;;17.30;99.90;;;;;;6056090;23;20491;-81
2022/05/23 01:22:51;;;;;;;2.37;2.10;;;17.30;99.90;;;;;;6056587;23;20536;-81
2022/05/23 01:25:27;;;;;;;2.80;2.20;;;17.30;99.90;;;;;;6058468;23;20542;-81
2022/05/23 01:27:54;;;;;;;2.40;2.30;;;17.20;99.90;;;;;;6057149;23;20512;-81
2022/05/23 01:30:22;;;;;;;2.83;2.30;;;17.10;99.90;;;;;;6058738;23;20921;-80
2022/05/23 01:32:49;;;;;;;2.60;2.40;;;17.00;99.90;;;;;;6059023;23;20865;-80
2022/05/23 01:35:16;;;;;;;2.93;2.73;;;17.00;99.90;;;;;;6058850;23;20840;-80
2022/05/23 01:37:43;;;;;;;2.30;2.10;;;17.00;99.90;;;;;;6057800;23;20520;-80
2022/05/23 01:40:12;;;;;;;2.67;2.37;;;17.00;99.90;;;;;;6060308;23;20547;-80
2022/05/23 01:42:41;;;;;;;3.00;2.47;;;17.00;99.90;;;;;;6058570;23;20452;-81
2022/05/23 01:45:09;;;;;;;2.93;2.73;;;17.00;99.90;;;;;;6053432;23;21052;-81
2022/05/23 01:47:36;;;;;;;4.10;2.63;;;17.00;99.90;;;;;;6058854;23;20496;-81
2022/05/23 01:50:04;;;;;;;2.77;2.53;;;17.00;99.90;;;;;;6059747;23;20557;-80
2022/05/23 01:52:31;;;;;;;2.70;2.50;;;17.00;99.90;;;;;;6060441;23;20497;-80
2022/05/23 01:54:58;;;;;;;2.43;2.33;;;17.00;99.90;;;;;;6058674;23;20974;-79
2022/05/23 01:57:26;;;;;;;3.30;3.00;;;17.00;99.90;;;;;;6056423;23;20506;-80
2022/05/23 02:02:38;;;;;;;3.53;2.63;;;16.90;99.90;;;;;;6059588;23;20461;-80
2022/05/23 02:05:06;;;;;;;3.10;2.80;;;16.90;99.90;;;;;;6049224;23;20517;-79
2022/05/23 02:07:33;;;;;;;3.17;2.93;;;16.80;99.90;;;;;;6056417;23;20529;-79
2022/05/23 02:10:00;;;;;;;2.83;2.63;;;16.80;99.90;;;;;;6061543;23;20476;-79
2022/05/23 02:12:27;;;;;;;3.03;2.83;;;16.70;99.90;;;;;;6056293;23;20449;-80
2022/05/23 02:14:55;;;;;;;3.03;2.77;;;16.60;99.90;;;;;;6060357;23;20441;-79
2022/05/23 02:17:23;;;;;;;3.33;2.60;;;16.50;99.90;;;;;;6057537;23;20489;-79
2022/05/23 02:19:50;;;;;;;3.30;3.10;;;16.40;99.90;;;;;;6060968;23;20512;-79
2022/05/23 02:22:17;;;;;;;3.70;2.80;;;16.40;99.90;;;;;;6060731;23;20451;-79
2022/05/23 02:24:44;;;;;;;3.07;2.87;;;16.30;99.90;;;;;;6058735;23;20515;-79
2022/05/23 02:27:11;;;;;;;2.87;2.67;;;16.20;99.90;;;;;;6056016;23;20905;-79
2022/05/23 02:29:38;;;;;;;3.03;2.80;;;16.20;99.90;;;;;;6059238;23;20450;-80
2022/05/23 02:32:07;;;;;;;3.30;3.00;;;16.20;99.90;;;;;;6065630;22;20472;-75
2022/05/23 02:34:34;;;;;;;2.90;2.70;;;16.10;99.90;;;;;;6060918;23;20471;-75
2022/05/23 02:37:01;;;;;;;3.03;2.83;;;16.10;99.90;;;;;;6057821;23;20468;-75
2022/05/23 02:39:29;;;;;;;3.53;3.23;;;16.10;99.90;;;;;;6059464;23;20527;-75
2022/05/23 02:41:56;;;;;;;2.80;2.63;;;16.10;99.90;;;;;;6058967;23;20468;-75
2022/05/23 02:44:23;;;;;;;3.10;2.83;;;16.10;99.90;;;;;;6055610;23;20466;-75
2022/05/23 02:46:50;;;;;;;3.00;2.70;;;16.10;99.90;;;;;;6054395;23;20492;-75
2022/05/23 02:49:19;;;;;;;3.60;2.70;;;16.10;99.90;;;;;;6060129;23;20536;-75
2022/05/23 02:51:46;;;;;;;4.20;2.80;;;16.10;99.90;;;;;;6060228;23;20457;-75
2022/05/23 02:54:13;;;;;;;2.90;2.63;;;16.10;99.90;;;;;;6057939;23;20441;-75
2022/05/23 02:56:40;;;;;;;3.00;2.80;;;16.10;99.90;;;;;;6059987;23;20508;-75
2022/05/23 02:59:07;;;;;;;3.37;2.57;;;16.10;99.90;;;;;;6051709;23;20528;-75
2022/05/23 03:03:01;;;;;;;2.83;2.63;;;16.10;99.90;;;;;;6037589;23;20505;-75
2022/05/23 03:04:21;;;;;;;2.80;2.60;;;16.10;99.90;;;;;;6039656;23;20454;-75
2022/05/23 03:06:48;;;;;;;3.40;3.10;;;16.00;99.90;;;;;;6055372;23;20513;-75
2022/05/23 03:09:15;;;;;;;3.00;2.70;;;16.10;99.90;;;;;;6062208;23;20475;-74
2022/05/23 03:11:42;;;;;;;2.70;2.43;;;16.10;99.90;;;;;;6059395;23;20477;-75
2022/05/23 03:14:09;;;;;;;2.73;2.53;;;16.20;99.90;;;;;;6056710;23;20536;-74
2022/05/23 03:16:36;;;;;;;3.73;2.73;;;16.20;99.90;;;;;;6058211;23;20497;-74
2022/05/23 03:19:04;;;;;;;3.43;2.90;;;16.30;99.90;;;;;;6059830;23;20485;-74
2022/05/23 03:27:03;;;;;;;3.37;3.07;;;16.30;99.90;;;;;;6056632;23;20496;-74
2022/05/23 03:29:31;;;;;;;3.03;2.80;;;16.30;99.90;;;;;;6048080;23;20443;-74
2022/05/23 03:31:59;;;;;;;3.40;3.00;;;16.30;99.90;;;;;;6058834;23;20466;-74
2022/05/23 03:34:26;;;;;;;4.47;3.30;;;16.30;99.90;;;;;;6054624;23;20447;-74
2022/05/23 03:36:54;;;;;;;3.50;3.20;;;16.30;99.90;;;;;;6058913;23;20987;-74
2022/05/23 03:39:21;;;;;;;3.50;3.20;;;16.30;99.90;;;;;;6063013;23;20929;-74
2022/05/23 03:41:52;;;;;;;3.27;3.07;;;16.30;99.90;;;;;;6056044;23;20477;-74
2022/05/23 03:44:19;;;;;;;3.30;3.10;;;16.20;99.90;;;;;;6058690;23;20533;-74
2022/05/23 03:46:46;;;;;;;3.03;2.83;;;16.20;99.90;;;;;;6052717;23;20458;-75
2022/05/23 03:49:13;;;;;;;3.23;2.93;;;16.20;99.90;;;;;;6056104;23;20444;-74
2022/05/23 03:51:41;;;;;;;4.20;3.50;;;16.20;99.90;;;;;;6059307;23;20511;-74
2022/05/23 03:54:10;;;;;;;3.83;3.53;;;16.20;99.90;;;;;;6059125;23;21098;-74
2022/05/23 03:56:37;;;;;;;3.57;3.27;;;16.10;99.90;;;;;;6052826;23;20528;-76
2022/05/23 03:59:04;;;;;;;3.60;3.30;;;16.20;99.90;;;;;;6057454;23;20453;-78
2022/05/23 04:01:32;;;;;;;3.75;3.38;;;16.10;99.90;;;;;;6058242;23;20477;-74
2022/05/23 04:03:59;;;;;;;3.33;3.03;;;16.10;99.90;;;;;;6052273;23;21905;-74
2022/05/23 04:06:27;;;;;;;8.38;4.20;;;16.30;99.90;;;;;;6057699;23;20505;-76
2022/05/23 04:08:54;;;;;;;7.57;4.20;;;16.30;99.90;;;;;;6059696;23;20185;-74
2022/05/23 04:11:22;;;;;;;6.00;5.20;;;16.00;99.90;;;;;;6055685;23;20519;-75
2022/05/23 04:13:49;;;;;;;7.00;5.33;;;15.60;99.90;;;;;;6054691;23;20464;-76
2022/05/23 04:16:16;;;;;;;6.50;5.80;;;15.20;99.90;;;;;;6053506;23;20558;-75
2022/05/23 04:18:43;;;;;;;7.23;6.53;;;14.90;99.90;;;;;;6058385;23;20441;-75
2022/05/23 04:21:10;;;;;;;6.20;5.60;;;14.70;99.90;;;;;;6049283;23;20613;-74
2022/05/23 04:23:37;;;;;;;5.10;4.70;;;14.60;99.90;;;;;;6063070;23;20522;-74
2022/05/23 04:26:07;;;;;;;6.60;6.00;;;14.50;99.90;;;;;;6056534;23;20533;-74
2022/05/23 04:28:36;;;;;;;6.47;5.97;;;14.50;99.90;;;;;;6056899;23;20906;-74
2022/05/23 04:31:03;;;;;;;6.40;5.80;;;14.40;99.90;;;;;;6054915;23;20455;-74
2022/05/23 04:36:15;;;;;;;4.50;4.20;;;14.40;99.90;;;;;;6055492;23;20530;-75
2022/05/23 04:38:42;;;;;;;4.70;4.30;;;14.40;99.90;;;;;;6043786;23;20463;-74
2022/05/23 04:41:09;;;;;;;5.33;3.90;;;14.50;99.90;;;;;;6049192;23;20462;-74
2022/05/23 04:43:43;;;;;;;4.03;3.73;;;14.50;99.90;;;;;;6045908;23;20841;-96
2022/05/23 04:46:09;;;;;;;4.33;3.90;;;14.50;99.90;;;;;;6053393;23;20455;-74
2022/05/23 04:51:21;;;;;;;4.50;3.70;;;14.50;99.90;;;;;;6050591;23;20432;-74
2022/05/23 04:53:53;;;;;;;4.40;3.50;;;14.60;99.90;;;;;;6050921;23;20443;-74
2022/05/23 04:56:20;;;;;;;4.73;4.30;;;14.60;99.90;;;;;;6056025;23;20487;-74
2022/05/23 04:58:48;;;;;;;5.63;4.57;;;14.60;99.90;;;;;;6054809;23;20443;-74
2022/05/23 05:01:16;;;;;;;5.47;4.93;;;14.60;99.90;;;;;;6057426;23;20463;-74
2022/05/23 05:03:43;;;;;;;5.00;4.60;;;14.60;99.90;;;;;;6056887;23;20443;-74
2022/05/23 05:06:10;;;;;;;5.57;5.10;;;14.70;99.90;;;;;;6057605;23;20459;-74
2022/05/23 05:08:37;;;;;;;5.63;5.13;;;14.80;99.90;;;;;;6054273;23;20436;-74
2022/05/23 05:11:05;;;;;;;5.53;5.00;;;14.90;99.90;;;;;;6051627;23;21311;-75
2022/05/23 05:13:35;;;;;;;5.30;4.83;;;15.10;99.90;;;;;;6062428;23;20432;-92
2022/05/23 05:16:06;;;;;;;5.33;4.93;;;15.20;99.90;;;;;;6065653;23;21182;-88
2022/05/23 05:18:33;;;;;;;4.53;4.23;;;15.40;99.90;;;;;;6058432;23;20455;-77
2022/05/23 05:21:04;;;;;;;8.23;5.40;;;15.50;99.90;;;;;;6060224;23;20527;-75
2022/05/23 05:23:31;;;;;;;7.40;5.93;;;15.60;99.90;;;;;;6058082;23;20444;-75
2022/05/23 05:25:58;;;;;;;4.90;4.50;;;15.70;99.90;;;;;;6058925;23;20473;-74
2022/05/23 05:28:25;;;;;;;5.00;4.57;;;15.70;99.90;;;;;;6062896;23;20464;-74
2022/05/23 05:30:57;;;;;;;5.07;4.67;;;15.50;99.90;;;;;;6062030;23;20544;-74
2022/05/23 05:33:31;;;;;;;5.73;5.23;;;15.30;99.90;;;;;;6041939;23;20448;-74
2022/05/23 05:36:02;;;;;;;5.53;5.03;;;15.20;99.90;;;;;;6073016;23;20820;-72
2022/05/23 05:38:33;;;;;;;5.63;5.13;;;15.00;99.90;;;;;;6065464;23;20461;-74
2022/05/23 05:41:05;;;;;;;8.20;6.70;;;14.90;99.90;;;;;;6063834;23;20486;-74
2022/05/23 05:43:37;;;;;;;7.40;6.10;;;14.90;99.90;;;;;;6062643;23;20818;-73
2022/05/23 05:46:09;;;;;;;7.67;6.87;;;14.80;99.90;;;;;;6042986;23;20460;-73
2022/05/23 05:48:40;;;;;;;8.97;7.17;;;14.80;99.90;;;;;;6055625;23;21129;-74
2022/05/23 05:51:08;;;;;;;8.73;7.80;;;14.70;99.90;;;;;;6059810;23;21014;-74
2022/05/23 05:53:35;;;;;;;8.33;6.40;;;14.70;99.90;;;;;;6056364;23;20515;-74
2022/05/23 05:56:03;;;;;;;7.70;6.97;;;14.70;99.90;;;;;;6061804;23;21024;-74
2022/05/23 05:58:31;;;;;;;6.97;6.37;;;14.70;99.90;;;;;;6054632;23;20891;-74
2022/05/23 06:00:58;;;;;;;12.40;6.87;;;14.80;99.90;;;;;;6051968;23;20460;-74
2022/05/23 06:03:25;;;;;;;7.97;7.30;;;14.80;99.90;;;;;;6054388;23;20431;-74
2022/05/23 06:11:26;;;;;;;7.43;6.60;;;14.90;99.90;;;;;;6057306;23;21004;-74
2022/05/23 06:13:55;;;;;;;6.73;6.13;;;15.00;99.90;;;;;;6054698;23;20442;-74
2022/05/23 06:16:23;;;;;;;6.80;6.30;;;15.10;99.90;;;;;;6055352;23;20463;-74
2022/05/23 06:18:50;;;;;;;6.63;6.03;;;15.30;99.90;;;;;;6054635;23;20522;-74
2022/05/23 06:21:19;;;;;;;8.10;5.80;;;15.40;99.90;;;;;;6058495;23;20464;-74
2022/05/23 06:23:47;;;;;;;5.97;5.47;;;15.50;99.90;;;;;;6056457;23;20460;-73
2022/05/23 06:26:15;;;;;;;6.20;5.60;;;15.70;99.90;;;;;;6055683;23;20982;-74
2022/05/23 06:28:43;;;;;;;5.60;5.20;;;15.80;99.90;;;;;;6058460;23;20443;-75
2022/05/23 06:31:11;;;;;;;5.27;4.87;;;15.90;99.90;;;;;;6057413;23;20482;-74
2022/05/23 06:33:38;;;;;;;5.43;4.93;;;16.00;99.90;;;;;;6058325;23;20439;-75
2022/05/23 06:36:06;;;;;;;5.50;5.10;;;16.10;99.90;;;;;;6060973;23;20488;-75
2022/05/23 06:38:39;;;;;;;5.30;4.80;;;16.10;99.90;;;;;;6051806;23;20520;-74
2022/05/23 06:41:07;;;;;;;5.80;5.37;;;16.10;99.90;;;;;;6057521;23;20520;-73
2022/05/23 06:43:35;;;;;;;6.00;5.40;;;16.00;99.90;;;;;;6060179;23;20435;-73
2022/05/23 06:46:02;;;;;;;5.97;5.47;;;16.00;99.90;;;;;;6052222;23;20526;-74
2022/05/23 06:48:30;;;;;;;5.90;5.50;;;15.90;99.90;;;;;;6057636;23;20540;-74
2022/05/23 06:50:57;;;;;;;6.23;5.27;;;16.00;99.90;;;;;;6056927;23;20431;-74
2022/05/23 06:53:25;;;;;;;5.60;5.20;;;16.10;99.90;;;;;;6059964;23;20541;-74
2022/05/23 06:55:54;;;;;;;5.10;4.70;;;16.20;99.90;;;;;;6054891;23;20496;-74
2022/05/23 06:58:21;;;;;;;5.43;4.93;;;16.20;99.90;;;;;;6056775;23;20494;-74
2022/05/23 07:00:49;;;;;;;4.90;4.60;;;16.30;99.90;;;;;;6057271;23;20515;-74
2022/05/23 07:03:17;;;;;;;4.60;4.30;;;16.30;99.90;;;;;;6062569;23;20532;-74
2022/05/23 07:14:00;;;;;;;5.23;4.73;;;16.80;99.90;;;;;;6059394;23;20473;-74
2022/05/23 07:16:31;;;;;;;5.07;4.67;;;17.10;99.90;;;;;;6056055;23;20515;-74
2022/05/23 07:18:58;;;;;;;4.80;4.50;;;17.50;99.90;;;;;;6056009;23;20496;-75
2022/05/23 07:21:25;;;;;;;4.37;4.07;;;17.70;99.90;;;;;;6059342;23;20565;-74
2022/05/23 07:23:53;;;;;;;4.30;4.00;;;18.00;99.90;;;;;;6057573;23;20434;-75
2022/05/23 07:26:21;;;;;;;4.97;4.57;;;18.30;99.90;;;;;;6054278;23;20587;-75
2022/05/23 07:28:49;;;;;;;4.20;3.87;;;18.60;99.90;;;;;;6061183;23;20478;-75
2022/05/23 07:31:17;;;;;;;4.70;4.27;;;18.80;99.90;;;;;;6058810;23;20522;-75
2022/05/23 07:33:45;;;;;;;4.47;4.07;;;18.70;99.90;;;;;;6061906;23;20458;-75
2022/05/23 07:36:12;;;;;;;3.90;3.53;;;18.50;99.90;;;;;;6056815;23;20505;-75
2022/05/23 07:38:40;;;;;;;3.93;3.63;;;18.40;99.90;;;;;;6049484;23;20441;-75
2022/05/23 07:41:08;;;;;;;5.60;4.20;;;18.50;99.90;;;;;;6058292;23;20442;-74
2022/05/23 07:43:39;;;;;;;4.20;4.00;;;18.50;99.90;;;;;;6052580;23;20548;-75
2022/05/23 07:46:09;;;;;;;4.40;4.10;;;18.50;99.90;;;;;;6056666;23;20510;-75
2022/05/23 07:48:37;;;;;;;4.57;3.30;;;18.40;99.90;;;;;;6054200;23;20435;-75
2022/05/23 07:51:04;;;;;;;4.33;4.03;;;18.50;99.90;;;;;;6062315;23;20527;-76
2022/05/23 08:01:48;;;;;;;4.10;3.70;;;19.10;99.90;;;;;;6060924;23;20467;-76
2022/05/23 08:04:16;;;;;;;4.50;4.10;;;19.10;99.90;;;;;;6060824;23;20443;-75
2022/05/23 08:06:43;;;;;;;3.90;3.60;;;19.10;99.90;;;;;;6062056;23;20439;-75
2022/05/23 08:09:11;;;;;;;4.60;4.30;;;19.20;99.90;;;;;;6061507;23;20435;-75
2022/05/23 08:11:39;;;;;;;5.13;4.50;;;19.50;99.90;;;;;;6061731;23;20444;-75
2022/05/23 08:14:08;;;;;;;5.27;3.80;;;19.60;99.90;;;;;;6060693;23;20431;-75
2022/05/23 08:16:36;;;;;;;4.20;3.80;;;19.80;99.90;;;;;;6062742;23;20526;-75
2022/05/23 08:19:03;;;;;;;5.20;4.80;;;20.10;99.90;;;;;;6060769;23;20443;-75
2022/05/23 08:21:31;;;;;;;5.57;5.10;;;20.00;99.90;;;;;;6038876;23;20447;-75
2022/05/23 08:24:00;;;;;;;5.00;4.60;;;19.90;99.90;;;;;;6043286;23;20534;-75
2022/05/23 08:26:27;;;;;;;4.73;4.33;;;19.80;99.90;;;;;;6033883;23;20440;-75
2022/05/23 08:28:54;;;;;;;5.00;4.60;;;19.70;99.90;;;;;;6059136;23;20455;-75
2022/05/23 08:31:23;;;;;;;5.80;4.60;;;19.80;99.90;;;;;;6061519;23;20526;-75
2022/05/23 08:33:49;;;;;;;7.00;4.77;;;19.90;99.90;;;;;;6059579;23;20523;-75
2022/05/23 08:36:16;;;;;;;8.60;5.40;;;19.90;99.90;;;;;;6062672;23;20498;-75
2022/05/23 08:38:43;;;;;;;8.57;5.30;;;19.90;99.90;;;;;;6061749;23;20432;-75
2022/05/23 08:41:19;;;;;;;5.03;4.63;;;19.90;99.90;;;;;;6061020;23;20852;-75
2022/05/23 08:43:52;;;;;;;5.20;4.70;;;19.90;99.90;;;;;;6060556;23;20471;-75
2022/05/23 08:46:26;;;;;;;5.43;4.60;;;19.90;99.90;;;;;;6062797;23;20489;-76
2022/05/23 08:49:03;;;;;;;5.40;4.97;;;20.00;99.90;;;;;;6060360;23;20534;-76
2022/05/23 08:51:38;;;;;;;5.00;4.60;;;19.90;99.90;;;;;;6062836;23;20522;-75
2022/05/23 08:54:16;;;;;;;4.37;4.10;;;19.80;99.90;;;;;;6046544;23;20596;-75
2022/05/23 08:56:48;;;;;;;4.70;4.30;;;19.80;99.90;;;;;;6091526;23;20461;-75
2022/05/23 08:59:25;;;;;;;4.97;4.47;;;19.70;99.90;;;;;;6067238;23;20436;-72
2022/05/23 09:01:58;;;;;;;4.17;3.83;;;19.70;99.90;;;;;;6084759;23;20449;-73
2022/05/23 09:04:46;;;;;;;4.67;4.27;;;19.60;99.90;;;;;;6060777;23;20455;-73
2022/05/23 09:07:22;;;;;;;3.43;3.13;;;19.70;99.90;;;;;;6053520;23;20505;-72
2022/05/23 09:09:50;;;;;;;3.80;3.40;;;19.60;99.90;;;;;;6057966;23;20496;-74
2022/05/23 09:12:16;;;;;;;4.07;3.43;;;19.70;99.90;;;;;;6062611;23;20522;-74
2022/05/23 09:14:43;;;;;;;4.17;3.77;;;19.90;99.90;;;;;;6060313;23;20544;-73
2022/05/23 09:17:20;;;;;;;4.60;4.17;;;20.20;99.90;;;;;;6060775;23;20459;-72
2022/05/23 09:19:56;;;;;;;7.50;4.37;;;20.30;99.90;;;;;;6060675;23;20438;-73
2022/05/23 09:22:38;;;;;;;4.60;4.20;;;20.50;99.90;;;;;;6061396;23;20541;-74
2022/05/23 09:25:07;;;;;;;4.13;3.83;;;20.70;99.90;;;;;;6048887;23;20464;-74
2022/05/23 09:27:36;;;;;;;4.07;3.67;;;21.00;99.90;;;;;;6060879;23;20439;-74
2022/05/23 09:30:06;;;;;;;4.40;3.70;;;21.50;99.90;;;;;;6062556;23;20439;-74
2022/05/23 09:32:38;;;;;;;4.30;3.90;;;21.70;99.90;;;;;;6060516;23;21010;-74
2022/05/23 09:35:15;;;;;;;5.90;4.10;;;21.70;99.90;;;;;;6052531;23;21026;-74
2022/05/23 09:37:46;;;;;;;4.53;4.23;;;21.50;99.90;;;;;;6042901;23;20869;-74
2022/05/23 09:40:25;;;;;;;4.30;4.00;;;21.30;99.90;;;;;;6059461;23;21005;-73
2022/05/23 09:48:25;;;;;;;4.70;4.30;;;21.20;99.90;;;;;;6061272;23;20442;-74
2022/05/23 09:50:56;;;;;;;4.77;4.30;;;21.30;99.90;;;;;;6061608;23;20478;-74
2022/05/23 09:53:26;;;;;;;4.90;4.40;;;21.40;99.90;;;;;;6060081;23;20543;-83
2022/05/23 09:55:54;;;;;;;5.13;4.00;;;21.50;99.90;;;;;;6062002;23;20451;-74
2022/05/23 09:58:29;;;;;;;4.97;4.57;;;21.70;99.90;;;;;;6058055;23;20489;-74
2022/05/23 10:01:02;;;;;;;4.47;4.07;;;21.80;99.90;;;;;;6062084;23;20435;-74
2022/05/23 10:03:33;;;;;;;4.10;3.70;;;22.00;99.90;;;;;;6059291;23;20555;-79
2022/05/23 10:06:08;;;;;;;4.40;4.00;;;22.20;99.90;;;;;;6058828;23;20978;-82
2022/05/23 10:08:40;;;;;;;5.53;3.70;;;22.40;99.90;;;;;;6057642;23;20439;-80
2022/05/23 10:11:19;;;;;;;4.40;4.00;;;23.10;99.90;;;;;;6062306;23;20471;-80
2022/05/23 10:13:50;;;;;;;5.00;4.13;;;23.40;99.90;;;;;;6046245;23;20447;-80
2022/05/23 10:16:27;;;;;;;3.80;3.40;;;23.80;99.90;;;;;;6063518;23;20442;-80
2022/05/23 10:19:01;;;;;;;4.50;4.17;;;24.80;99.90;;;;;;6062410;23;20462;-81
2022/05/23 10:21:34;;;;;;;4.20;3.77;;;25.50;99.90;;;;;;6062757;23;20553;-85
2022/05/23 10:24:07;;;;;;;4.03;3.50;;;25.70;99.90;;;;;;6055611;23;20471;-79
2022/05/23 10:26:45;;;;;;;4.20;3.30;;;25.40;99.90;;;;;;6060663;23;20974;-76
2022/05/23 10:29:17;;;;;;;4.00;3.70;;;24.60;99.90;;;;;;6061099;23;20443;-74
2022/05/23 10:31:48;;;;;;;4.80;3.63;;;24.20;99.90;;;;;;6058871;23;20447;-75
2022/05/23 10:34:31;;;;;;;4.00;3.60;;;24.00;99.90;;;;;;6052341;23;20982;-74
2022/05/23 10:37:02;;;;;;;3.87;3.47;;;23.70;99.90;;;;;;6062907;23;20498;-74
2022/05/23 10:42:23;;;;;;;3.90;3.60;;;23.10;99.90;;;;;;6062061;23;20987;-77
2022/05/23 10:45:03;;;;;;;3.93;3.53;;;23.10;99.90;;;;;;6061634;23;20469;-77
2022/05/23 10:47:47;;;;;;;3.67;3.37;;;23.10;99.90;;;;;;6061858;23;20446;-82
2022/05/23 10:50:22;;;;;;;4.17;3.73;;;23.30;99.90;;;;;;6058556;23;20870;-76
2022/05/23 10:52:57;;;;;;;3.80;3.50;;;23.30;99.90;;;;;;6061827;23;20455;-76
2022/05/23 10:55:33;;;;;;;3.60;3.30;;;23.20;99.90;;;;;;6062492;23;20537;-75
2022/05/23 10:58:09;;;;;;;5.20;3.47;;;23.00;99.90;;;;;;6062331;23;20477;-76
2022/05/23 11:00:44;;;;;;;7.03;3.97;;;22.80;99.90;;;;;;6061213;23;20446;-78
2022/05/23 11:03:21;;;;;;;4.30;3.40;;;22.90;99.90;;;;;;6034419;23;20458;-76
2022/05/23 11:05:57;;;;;;;3.93;3.40;;;23.00;99.90;;;;;;6036015;23;20543;-74
2022/05/23 11:08:38;;;;;;;5.43;3.70;;;22.80;99.90;;;;;;6061976;23;20477;-77
2022/05/23 11:11:10;;;;;;;3.60;3.30;;;22.60;99.90;;;;;;6062470;23;20473;-77
2022/05/23 11:13:50;;;;;;;5.83;4.20;;;22.30;99.90;;;;;;6062608;23;20493;-77
2022/05/23 11:16:25;;;;;;;4.13;3.83;;;21.80;99.90;;;;;;6062154;23;20526;-76
2022/05/23 11:19:07;;;;;;;8.77;5.83;;;21.10;99.90;;;;;;6059930;23;20945;-77
2022/05/23 11:21:42;;;;;;;7.00;6.23;;;20.50;99.90;;;;;;6060456;23;20456;-76
2022/05/23 11:24:13;;;;;;;5.73;5.33;;;20.00;99.90;;;;;;6054906;23;20476;-76
2022/05/23 11:26:45;;;;;;;9.40;7.60;;;19.50;99.90;;;;;;6053804;23;20436;-76
2022/05/23 11:34:53;;;;;;;7.33;6.63;;;18.80;99.90;;;;;;6062650;23;20459;-76
2022/05/23 11:37:45;;;;;;;8.23;7.27;;;18.70;99.90;;;;;;6060662;23;20435;-76
2022/05/23 11:40:14;;;;;;;8.10;7.40;;;18.50;99.90;;;;;;6037225;23;20527;-75
2022/05/23 11:42:43;;;;;;;8.87;8.17;;;18.40;99.90;;;;;;6063081;23;20438;-75
2022/05/23 11:48:48;;;;;;;9.20;7.23;;;18.30;99.90;;;;;;6042912;23;20527;-75
2022/05/23 11:51:18;;;;;;;9.00;7.30;;;18.20;99.90;;;;;;6001962;23;20516;-76
2022/05/23 11:53:56;;;;;;;8.30;7.60;;;18.20;99.90;;;;;;6051146;23;20474;-75
2022/05/23 11:56:39;;;;;;;9.80;8.30;;;18.20;99.90;;;;;;6050566;23;20851;-75
2022/05/23 11:59:09;;;;;;;10.50;9.30;;;18.20;99.90;;;;;;6064612;23;20433;-76
2022/05/23 12:01:37;;;;;;;10.63;9.70;;;18.20;99.90;;;;;;6064394;23;20523;-75
2022/05/23 12:04:16;;;;;;;8.40;7.60;;;18.20;99.90;;;;;;6063536;23;20484;-76
2022/05/23 12:06:44;;;;;;;6.80;6.20;;;18.30;99.90;;;;;;6060779;23;20509;-76
2022/05/23 12:09:34;;;;;;;5.83;4.90;;;18.20;99.90;;;;;;6063194;23;20467;-76
2022/05/23 12:12:46;;;;;;;7.00;6.40;;;18.20;99.90;;;;;;6058916;23;20939;-76
2022/05/23 12:15:47;;;;;;;7.90;7.07;;;18.20;99.90;;;;;;6062298;23;20487;-75
2022/05/23 12:18:35;;;;;;;7.40;5.67;;;18.20;99.90;;;;;;6063026;23;20842;-75
2022/05/23 12:21:06;;;;;;;6.03;5.43;;;18.20;99.90;;;;;;6060548;23;20443;-74
2022/05/23 12:23:36;;;;;;;6.10;5.50;;;18.10;99.90;;;;;;6060975;23;20554;-75
2022/05/23 12:26:21;;;;;;;6.67;6.07;;;18.10;99.90;;;;;;6058945;23;20446;-75
2022/05/23 12:28:52;;;;;;;7.50;5.20;;;18.00;99.90;;;;;;6061583;23;20434;-76
2022/05/23 12:31:21;;;;;;;6.43;5.80;;;18.00;99.90;;;;;;6053545;23;20439;-79
2022/05/23 12:34:07;;;;;;;8.10;6.57;;;17.90;99.90;;;;;;6052670;23;20452;-77
2022/05/23 12:36:38;;;;;;;6.53;5.10;;;18.00;99.90;;;;;;6050916;23;20435;-76
2022/05/23 12:39:56;;;;;;;6.57;5.90;;;17.90;99.90;;;;;;6058508;23;20976;-78
2022/05/23 12:42:41;;;;;;;7.80;4.77;;;17.90;99.90;;;;;;6049210;23;20514;-76
2022/05/23 12:45:41;;;;;;;5.40;4.90;;;17.90;99.90;;;;;;6059407;23;20545;-76
2022/05/23 12:48:40;;;;;;;6.47;5.07;;;18.00;99.90;;;;;;6054293;23;20525;-75
2022/05/23 12:51:22;;;;;;;5.90;4.97;;;18.00;99.90;;;;;;6008459;23;20553;-76
2022/05/23 12:54:18;;;;;;;5.60;5.10;;;18.10;99.90;;;;;;6055312;23;20530;-75
2022/05/23 12:57:21;;;;;;;8.30;5.20;;;18.20;99.90;;;;;;6045775;23;20432;-75
2022/05/23 12:59:57;;;;;;;8.20;5.53;;;18.20;99.90;;;;;;6048252;23;21051;-74
2022/05/23 13:02:30;;;;;;;5.30;4.77;;;18.40;99.90;;;;;;6055569;23;20471;-73
2022/05/23 13:05:04;;;;;;;5.50;4.87;;;18.60;99.90;;;;;;6049709;23;20470;-73
2022/05/23 13:07:40;;;;;;;6.60;4.80;;;18.90;99.90;;;;;;6052290;23;20465;-73
2022/05/23 13:10:12;;;;;;;5.73;3.83;;;19.20;99.90;;;;;;6056787;23;20944;-73
2022/05/23 13:12:44;;;;;;;6.20;4.10;;;19.50;99.90;;;;;;6054145;23;20966;-75
2022/05/23 13:15:24;;;;;;;4.20;3.60;;;19.80;99.90;;;;;;6057402;23;20835;-76
2022/05/23 13:17:51;;;;;;;4.13;3.53;;;20.20;99.90;;;;;;6047513;23;20567;-75
2022/05/23 13:23:13;;;;;;;5.40;3.87;;;21.20;99.90;;;;;;6059533;23;20453;-75
2022/05/23 13:25:40;;;;;;;4.30;3.07;;;21.60;99.90;;;;;;6055961;23;20504;-75
2022/05/23 13:28:12;;;;;;;5.97;3.53;;;21.70;99.90;;;;;;6056048;23;20446;-75
2022/05/23 13:30:43;;;;;;;4.23;3.77;;;21.70;99.90;;;;;;6056024;23;20504;-76
2022/05/23 13:33:15;;;;;;;5.30;3.47;;;21.60;99.90;;;;;;6057299;23;20520;-75
2022/05/23 13:35:43;;;;;;;4.10;3.50;;;21.80;99.90;;;;;;6057636;23;20439;-75
2022/05/23 13:38:20;;;;;;;5.23;3.27;;;22.10;99.90;;;;;;6045516;23;20439;-75
2022/05/23 13:40:51;;;;;;;5.33;3.07;;;22.70;99.90;;;;;;6060863;23;20466;-75
2022/05/23 13:43:22;;;;;;;3.23;2.93;;;23.90;99.90;;;;;;6059433;23;20491;-76
2022/05/23 13:46:01;;;;;;;4.33;3.17;;;25.10;99.90;;;;;;6046964;23;20511;-76
2022/05/23 13:48:36;;;;;;;6.47;3.10;;;26.60;99.90;;;;;;6053879;23;20514;-76
2022/05/23 13:51:08;;;;;;;4.33;3.10;;;27.80;99.90;;;;;;6037763;23;20839;-76
2022/05/23 13:53:42;;;;;;;4.67;3.43;;;29.10;99.90;;;;;;6050186;23;20490;-76
2022/05/23 13:56:10;;;;;;;4.70;2.97;;;29.70;99.90;;;;;;6056134;23;21183;-76
2022/05/23 13:58:43;;;;;;;4.00;3.10;;;29.80;99.90;;;;;;6058190;23;20530;-76
2022/05/23 14:01:20;;;;;;;7.13;2.90;;;29.60;99.90;;;;;;6041683;23;20439;-76
2022/05/23 14:03:53;;;;;;;4.50;3.23;;;30.50;99.90;;;;;;6045198;23;20597;-76
2022/05/23 14:06:26;;;;;;;4.47;3.23;;;31.20;99.90;;;;;;6045576;23;20869;-76
2022/05/23 14:08:56;;;;;;;7.20;3.10;;;31.70;99.90;;;;;;6060072;23;20432;-76
2022/05/23 14:11:27;;;;;;;4.40;3.10;;;32.90;98.90;;;;;;6047511;23;20451;-76